Time;durP1;ratioP1;P1;durP2;ratioP2;P2;SDS_P1;SDS_P2;PMS_P1;PMS_P2;Temp;Humidity;BMP_temperature;BMP_pressure;BME280_temperature;BME280_humidity;BME280_pressure;Samples;Min_cycle;Max_cycle;Signal;HPM_P1;HPM_P2
2022/08/29 00:01:24;;;;;;;51.95;12.68;;;16.60;99.90;;;;;;5095227;28;20024;-53
2022/08/29 00:03:54;;;;;;;168.48;15.55;;;16.60;99.90;;;;;;5076426;28;20069;-51
2022/08/29 00:06:20;;;;;;;20.25;12.15;;;16.60;99.90;;;;;;5074940;28;20029;-49
2022/08/29 00:08:45;;;;;;;89.75;14.75;;;16.70;99.90;;;;;;5074896;28;20048;-50
2022/08/29 00:11:11;;;;;;;206.77;16.23;;;16.70;99.90;;;;;;5074921;28;20056;-52
2022/08/29 00:13:37;;;;;;;71.53;11.45;;;16.70;99.90;;;;;;5091364;28;20036;-52
2022/08/29 00:16:03;;;;;;;31.92;11.52;;;16.70;99.90;;;;;;5094942;28;20463;-49
2022/08/29 00:18:29;;;;;;;123.28;12.95;;;16.70;99.90;;;;;;5095108;28;20467;-49
2022/08/29 00:20:55;;;;;;;29.77;10.68;;;16.60;99.90;;;;;;5093645;28;20154;-50
2022/08/29 00:23:21;;;;;;;9.77;8.82;;;16.70;99.90;;;;;;5080034;28;20107;-50
2022/08/29 00:25:47;;;;;;;145.18;14.18;;;16.70;99.90;;;;;;5074827;28;20024;-48
2022/08/29 00:28:13;;;;;;;126.75;12.27;;;16.60;99.90;;;;;;5074375;28;20115;-50
2022/08/29 00:30:39;;;;;;;158.95;16.38;;;16.50;99.90;;;;;;5074812;28;20111;-50
2022/08/29 00:33:05;;;;;;;82.10;12.18;;;16.40;99.90;;;;;;5086316;28;20150;-49
2022/08/29 00:35:34;;;;;;;139.55;13.82;;;16.30;99.90;;;;;;5094709;28;20028;-51
2022/08/29 00:38:01;;;;;;;82.45;12.10;;;16.30;99.90;;;;;;5094838;28;20024;-49
2022/08/29 00:40:33;;;;;;;127.30;12.98;;;16.20;99.90;;;;;;5094597;28;20031;-49
2022/08/29 00:42:59;;;;;;;134.80;14.30;;;16.20;99.90;;;;;;5083650;28;20056;-52
2022/08/29 00:45:26;;;;;;;120.82;11.88;;;16.20;99.90;;;;;;5074178;28;20375;-49
2022/08/29 00:47:58;;;;;;;82.28;14.43;;;16.10;99.90;;;;;;5075453;28;20055;-49
2022/08/29 00:50:33;;;;;;;99.40;12.88;;;16.10;99.90;;;;;;5074370;28;20396;-49
2022/08/29 00:53:00;;;;;;;82.15;11.32;;;16.00;99.90;;;;;;5084580;28;20662;-49
2022/08/29 00:55:31;;;;;;;16.40;10.00;;;15.90;99.90;;;;;;5093802;28;20039;-48
2022/08/29 00:58:02;;;;;;;30.23;11.05;;;15.90;99.90;;;;;;5093718;28;20107;-49
2022/08/29 01:00:30;;;;;;;22.83;11.13;;;15.90;99.90;;;;;;5092906;28;20037;-48
2022/08/29 01:02:56;;;;;;;44.90;10.48;;;15.80;99.90;;;;;;5084434;28;20104;-50
2022/08/29 01:05:22;;;;;;;107.57;12.25;;;15.70;99.90;;;;;;5073894;28;20548;-49
2022/08/29 01:07:48;;;;;;;121.88;12.02;;;15.70;99.90;;;;;;5073753;28;20128;-50
2022/08/29 01:12:14;;;;;;;63.40;10.80;;;15.70;99.90;;;;;;5073785;28;20028;-50
2022/08/29 01:13:02;;;;;;;93.63;11.90;;;15.70;99.90;;;;;;5083290;28;20028;-49
2022/08/29 01:15:30;;;;;;;91.57;12.05;;;15.70;99.90;;;;;;5092616;28;20035;-49
2022/08/29 01:17:57;;;;;;;124.43;13.30;;;15.60;99.90;;;;;;5094099;28;20027;-48
2022/08/29 01:20:48;;;;;;;141.55;13.35;;;15.60;99.90;;;;;;5093771;28;20070;-48
2022/08/29 01:23:41;;;;;;;84.00;11.88;;;15.50;99.90;;;;;;5081813;28;20051;-50
2022/08/29 01:26:10;;;;;;;86.25;11.15;;;15.50;99.90;;;;;;5073848;28;20482;-50
2022/08/29 01:28:40;;;;;;;122.72;12.82;;;15.60;99.90;;;;;;5073479;28;20059;-49
2022/08/29 01:31:09;;;;;;;134.05;12.68;;;15.60;99.90;;;;;;5073751;28;20040;-48
2022/08/29 01:33:45;;;;;;;151.25;12.65;;;15.60;99.90;;;;;;5087574;28;20024;-50
2022/08/29 01:36:16;;;;;;;103.15;11.15;;;15.60;99.90;;;;;;5093227;28;20029;-51
2022/08/29 01:38:42;;;;;;;60.45;9.90;;;15.60;99.90;;;;;;5093767;28;20020;-51
2022/08/29 01:41:09;;;;;;;26.50;9.65;;;15.70;99.90;;;;;;5093595;28;20151;-51
2022/08/29 01:43:41;;;;;;;12.90;8.27;;;15.70;99.90;;;;;;5079164;28;20027;-49
2022/08/29 01:46:10;;;;;;;17.55;8.95;;;15.70;99.90;;;;;;5074452;28;20052;-50
2022/08/29 01:48:39;;;;;;;62.75;9.98;;;15.70;99.90;;;;;;5073066;28;20073;-49
2022/08/29 01:51:05;;;;;;;57.45;10.48;;;15.60;99.90;;;;;;5073259;28;20028;-52
2022/08/29 01:53:31;;;;;;;30.45;10.82;;;15.50;99.90;;;;;;5073027;28;20028;-49
2022/08/29 01:55:56;;;;;;;69.50;12.80;;;15.50;99.90;;;;;;5080987;28;20505;-53
2022/08/29 01:58:22;;;;;;;126.25;13.82;;;15.50;99.90;;;;;;5093184;28;20399;-49
2022/08/29 02:00:48;;;;;;;44.92;12.10;;;15.50;99.90;;;;;;5093243;28;20031;-49
2022/08/29 02:03:14;;;;;;;82.85;11.48;;;15.50;99.90;;;;;;5093013;28;20023;-49
2022/08/29 02:05:39;;;;;;;48.38;12.68;;;15.50;99.90;;;;;;5087147;28;20025;-50
2022/08/29 02:08:05;;;;;;;62.10;12.40;;;15.50;99.90;;;;;;5072261;28;20044;-49
2022/08/29 02:10:31;;;;;;;197.32;13.98;;;15.40;99.90;;;;;;5072587;28;20064;-49
2022/08/29 02:12:57;;;;;;;109.88;13.50;;;15.40;99.90;;;;;;5072740;28;20025;-48
2022/08/29 02:15:23;;;;;;;136.50;13.57;;;15.40;99.90;;;;;;5075733;28;20028;-51
2022/08/29 02:17:48;;;;;;;158.38;14.20;;;15.40;99.90;;;;;;5092504;28;20023;-50
2022/08/29 02:20:15;;;;;;;161.25;14.25;;;15.40;99.90;;;;;;5092824;28;20025;-49
2022/08/29 02:22:41;;;;;;;137.70;15.10;;;15.40;99.90;;;;;;5092732;28;20016;-48
2022/08/29 02:25:40;;;;;;;141.52;13.13;;;15.40;99.90;;;;;;5091610;28;20036;-50
2022/08/29 02:27:53;;;;;;;185.07;15.73;;;15.40;99.90;;;;;;5072456;28;20537;-49
2022/08/29 02:30:20;;;;;;;126.35;13.13;;;15.50;99.90;;;;;;5072212;28;20028;-52
2022/08/29 02:32:47;;;;;;;163.80;14.23;;;15.50;99.90;;;;;;5072360;28;20446;-50
2022/08/29 02:35:13;;;;;;;136.05;13.13;;;15.60;99.90;;;;;;5073563;28;20032;-50
2022/08/29 02:37:39;;;;;;;172.90;14.48;;;15.60;99.90;;;;;;5092424;28;20077;-48
2022/08/29 02:40:05;;;;;;;202.68;15.15;;;15.60;99.90;;;;;;5092601;28;20471;-48
2022/08/29 02:42:31;;;;;;;69.18;11.30;;;15.70;99.90;;;;;;5090542;28;20024;-48
2022/08/29 02:44:57;;;;;;;10.93;9.85;;;15.70;99.90;;;;;;5090658;28;20043;-50
2022/08/29 02:47:23;;;;;;;11.32;8.65;;;15.70;99.90;;;;;;5092262;28;20432;-49
2022/08/29 02:49:49;;;;;;;16.02;9.80;;;15.80;99.90;;;;;;5092260;28;20047;-48
2022/08/29 02:52:15;;;;;;;16.48;8.32;;;15.80;99.90;;;;;;5086636;28;20483;-49
2022/08/29 02:54:40;;;;;;;9.23;8.10;;;15.90;99.90;;;;;;5071840;28;20662;-49
2022/08/29 02:57:06;;;;;;;10.85;9.85;;;15.90;99.90;;;;;;5072012;28;20507;-49
2022/08/29 02:59:31;;;;;;;10.02;9.02;;;15.90;99.90;;;;;;5071800;28;20032;-49
2022/08/29 03:01:57;;;;;;;9.82;8.82;;;15.90;99.90;;;;;;5074218;28;20024;-53
2022/08/29 03:04:23;;;;;;;13.63;8.85;;;16.00;99.90;;;;;;5091834;28;20020;-52
2022/08/29 03:06:49;;;;;;;10.18;9.05;;;16.00;99.90;;;;;;5091727;28;20483;-50
2022/08/29 03:09:14;;;;;;;9.75;8.82;;;16.00;99.90;;;;;;5091862;28;20038;-49
2022/08/29 03:11:40;;;;;;;11.95;8.65;;;16.10;99.90;;;;;;5091749;28;20020;-49
2022/08/29 03:14:07;;;;;;;9.82;8.82;;;16.10;99.90;;;;;;5067332;28;20032;-48
2022/08/29 03:16:32;;;;;;;10.98;9.05;;;16.20;99.90;;;;;;5071524;28;20032;-49
2022/08/29 03:18:58;;;;;;;13.10;9.63;;;16.30;99.90;;;;;;5069542;28;20028;-52
2022/08/29 03:21:25;;;;;;;12.20;9.25;;;16.30;99.90;;;;;;5071463;28;20353;-49
2022/08/29 03:23:52;;;;;;;12.45;9.50;;;16.30;99.90;;;;;;5089536;28;20094;-48
2022/08/29 03:26:18;;;;;;;11.70;9.55;;;16.30;99.90;;;;;;5090316;28;20466;-49
2022/08/29 03:28:43;;;;;;;16.90;10.70;;;16.30;99.90;;;;;;5091771;28;20030;-51
2022/08/29 03:31:09;;;;;;;17.88;10.73;;;16.30;99.90;;;;;;5091660;28;20360;-49
2022/08/29 03:33:35;;;;;;;13.88;10.55;;;16.30;99.90;;;;;;5074358;28;20039;-50
2022/08/29 03:36:02;;;;;;;11.50;9.82;;;16.30;99.90;;;;;;5071367;28;20021;-51
2022/08/29 03:38:27;;;;;;;11.35;10.07;;;16.40;99.90;;;;;;5071276;28;20494;-49
2022/08/29 03:40:53;;;;;;;16.92;12.40;;;16.40;99.90;;;;;;5071500;28;20025;-50
2022/08/29 03:43:20;;;;;;;22.15;13.68;;;16.40;99.90;;;;;;5084056;28;20031;-50
2022/08/29 03:45:48;;;;;;;18.77;13.57;;;16.30;99.90;;;;;;5091628;28;20023;-49
2022/08/29 03:48:14;;;;;;;16.90;11.98;;;16.40;99.90;;;;;;5091457;28;20099;-49
2022/08/29 03:50:41;;;;;;;18.95;12.10;;;16.50;99.90;;;;;;5091595;28;20482;-49
2022/08/29 03:53:07;;;;;;;18.25;12.20;;;16.50;99.90;;;;;;5079986;28;20044;-52
2022/08/29 03:55:33;;;;;;;19.33;12.52;;;16.40;99.90;;;;;;5071167;28;20024;-51
2022/08/29 03:57:58;;;;;;;19.77;13.30;;;16.40;99.90;;;;;;5071292;28;20345;-49
2022/08/29 04:00:24;;;;;;;19.95;14.20;;;16.30;99.90;;;;;;5071049;28;20029;-49
2022/08/29 04:02:52;;;;;;;17.98;14.23;;;16.20;99.90;;;;;;5079670;28;20103;-51
2022/08/29 04:05:18;;;;;;;19.92;14.15;;;16.20;99.90;;;;;;5091199;28;20431;-49
2022/08/29 04:07:51;;;;;;;19.25;13.52;;;16.20;99.90;;;;;;5091223;28;20204;-51
2022/08/29 04:10:37;;;;;;;18.98;14.63;;;16.20;99.90;;;;;;5091349;28;20039;-52
2022/08/29 04:13:04;;;;;;;20.40;14.85;;;16.30;99.90;;;;;;5079505;28;20032;-49
2022/08/29 04:15:32;;;;;;;18.90;13.88;;;16.30;99.90;;;;;;5069473;28;20049;-51
2022/08/29 04:17:59;;;;;;;19.70;14.98;;;16.30;99.90;;;;;;5071131;28;20059;-51
2022/08/29 04:20:30;;;;;;;21.55;14.90;;;16.30;99.90;;;;;;5070877;28;20036;-52
2022/08/29 04:22:58;;;;;;;19.85;15.52;;;16.30;99.90;;;;;;5079380;28;20030;-49
2022/08/29 04:25:25;;;;;;;24.67;14.63;;;16.30;99.90;;;;;;5090753;28;20525;-50
2022/08/29 04:27:51;;;;;;;24.38;15.27;;;16.30;99.90;;;;;;5089644;28;20502;-52
2022/08/29 04:30:20;;;;;;;17.38;13.48;;;16.30;99.90;;;;;;5091416;28;20028;-52
2022/08/29 04:32:46;;;;;;;24.95;15.02;;;16.30;99.90;;;;;;5087639;28;20078;-52
2022/08/29 04:35:13;;;;;;;16.98;14.15;;;16.40;99.90;;;;;;5074550;28;20406;-51
2022/08/29 04:37:40;;;;;;;18.05;14.32;;;16.40;99.90;;;;;;5075648;28;20044;-51
2022/08/29 04:40:08;;;;;;;17.98;14.20;;;16.40;99.90;;;;;;5075514;28;20031;-54
2022/08/29 04:42:38;;;;;;;20.33;15.52;;;16.40;99.90;;;;;;5074104;28;20021;-53
2022/08/29 04:45:06;;;;;;;19.60;14.10;;;16.40;99.90;;;;;;5074418;28;20491;-52
2022/08/29 04:47:34;;;;;;;20.83;15.65;;;16.40;99.90;;;;;;5073369;28;20032;-49
2022/08/29 04:50:00;;;;;;;21.02;14.30;;;16.40;99.90;;;;;;5085029;28;20161;-50
2022/08/29 04:52:27;;;;;;;17.23;12.02;;;16.50;99.90;;;;;;5092415;28;20069;-52
2022/08/29 04:54:53;;;;;;;16.42;12.77;;;16.50;99.90;;;;;;5092622;28;20044;-51
2022/08/29 04:57:19;;;;;;;20.67;14.40;;;16.60;99.90;;;;;;5091617;28;20077;-50
2022/08/29 04:59:46;;;;;;;18.80;13.02;;;16.60;99.90;;;;;;5082269;28;20493;-52
2022/08/29 05:02:12;;;;;;;15.90;13.07;;;16.60;99.90;;;;;;5072756;28;20008;-52
2022/08/29 05:04:38;;;;;;;27.05;15.63;;;16.60;99.90;;;;;;5072894;28;20028;-53
2022/08/29 05:07:03;;;;;;;22.90;16.92;;;16.70;99.90;;;;;;5072571;28;20044;-49
2022/08/29 05:09:29;;;;;;;17.98;12.40;;;16.70;99.90;;;;;;5079993;28;20035;-52
2022/08/29 05:11:55;;;;;;;13.70;10.80;;;16.80;99.90;;;;;;5092813;28;20047;-51
2022/08/29 05:14:20;;;;;;;23.80;13.05;;;16.90;99.90;;;;;;5092937;28;20027;-49
2022/08/29 05:16:47;;;;;;;20.77;15.13;;;16.90;99.90;;;;;;5092555;28;20036;-52
2022/08/29 05:19:13;;;;;;;18.25;14.02;;;16.90;99.90;;;;;;5087386;28;20025;-49
2022/08/29 05:21:39;;;;;;;19.85;13.52;;;16.90;99.90;;;;;;5072484;28;20017;-49
2022/08/29 05:24:10;;;;;;;15.82;13.50;;;16.90;99.90;;;;;;5072383;28;20013;-48
2022/08/29 05:26:40;;;;;;;26.30;14.10;;;17.00;99.90;;;;;;5072414;28;20020;-51
2022/08/29 05:29:08;;;;;;;17.85;12.73;;;17.10;99.90;;;;;;5076300;28;20035;-49
2022/08/29 05:31:35;;;;;;;21.15;14.57;;;17.20;99.90;;;;;;5091051;28;20024;-49
2022/08/29 05:34:01;;;;;;;24.00;14.18;;;17.20;99.90;;;;;;5092575;28;20103;-48
2022/08/29 05:36:27;;;;;;;19.98;13.60;;;17.20;99.90;;;;;;5092213;28;20035;-49
2022/08/29 05:38:53;;;;;;;17.58;12.88;;;17.20;99.90;;;;;;5090064;28;20032;-48
2022/08/29 05:41:19;;;;;;;17.67;13.35;;;17.40;99.90;;;;;;5072034;28;20471;-49
2022/08/29 05:43:44;;;;;;;21.08;14.55;;;17.40;99.90;;;;;;5070057;28;20029;-52
2022/08/29 05:46:10;;;;;;;19.73;12.02;;;17.40;99.90;;;;;;5071910;28;20029;-49
2022/08/29 05:48:40;;;;;;;19.35;12.05;;;17.60;99.90;;;;;;5071916;28;20024;-48
2022/08/29 05:51:06;;;;;;;16.80;13.95;;;17.60;99.90;;;;;;5092060;28;20466;-49
2022/08/29 05:53:33;;;;;;;21.08;15.70;;;17.50;99.90;;;;;;5091944;28;20043;-49
2022/08/29 05:55:59;;;;;;;19.23;15.50;;;17.50;99.90;;;;;;5090617;28;20024;-48
2022/08/29 05:58:27;;;;;;;17.00;14.57;;;17.50;99.90;;;;;;5090545;28;20028;-48
2022/08/29 06:00:52;;;;;;;35.05;16.27;;;17.50;99.90;;;;;;5073427;28;20419;-48
2022/08/29 06:03:18;;;;;;;18.50;14.88;;;17.50;99.90;;;;;;5071527;28;20021;-49
2022/08/29 06:05:50;;;;;;;18.48;15.43;;;17.40;99.90;;;;;;5071643;28;20017;-49
2022/08/29 06:08:15;;;;;;;17.90;15.23;;;17.40;99.90;;;;;;5071278;28;20049;-48
2022/08/29 06:10:44;;;;;;;16.88;14.70;;;17.40;99.90;;;;;;5087014;28;20039;-48
2022/08/29 06:13:10;;;;;;;19.75;16.15;;;17.50;99.90;;;;;;5091719;28;20421;-48
2022/08/29 06:15:36;;;;;;;20.67;15.68;;;17.50;99.90;;;;;;5091586;28;20064;-51
2022/08/29 06:18:03;;;;;;;17.65;15.10;;;17.40;99.90;;;;;;5091545;28;20084;-48
2022/08/29 06:20:28;;;;;;;25.17;17.33;;;17.50;99.90;;;;;;5076929;28;20035;-48
2022/08/29 06:22:54;;;;;;;24.35;16.48;;;17.60;99.90;;;;;;5071288;28;20021;-49
2022/08/29 06:25:20;;;;;;;23.25;16.98;;;17.70;99.90;;;;;;5071012;28;20024;-49
2022/08/29 06:27:45;;;;;;;21.35;15.25;;;17.90;99.90;;;;;;5071130;28;20343;-48
2022/08/29 06:30:11;;;;;;;17.88;13.88;;;18.10;99.90;;;;;;5082448;28;20528;-50
2022/08/29 06:32:38;;;;;;;16.75;13.02;;;18.20;99.90;;;;;;5091247;28;20024;-49
2022/08/29 06:35:04;;;;;;;14.88;12.18;;;18.30;99.90;;;;;;5091129;28;20059;-48
2022/08/29 06:37:30;;;;;;;17.42;13.32;;;18.70;99.90;;;;;;5091084;28;20080;-49
2022/08/29 06:39:56;;;;;;;15.07;12.30;;;18.90;99.90;;;;;;5080362;28;20028;-50
2022/08/29 06:42:23;;;;;;;19.63;12.55;;;19.00;99.90;;;;;;5070549;28;20025;-49
2022/08/29 06:44:50;;;;;;;17.08;12.32;;;19.10;99.90;;;;;;5069628;28;20023;-49
2022/08/29 06:47:16;;;;;;;15.85;13.10;;;19.00;99.90;;;;;;5070562;28;20020;-49
2022/08/29 06:49:41;;;;;;;24.25;13.73;;;18.90;99.90;;;;;;5085354;28;20028;-49
2022/08/29 06:52:07;;;;;;;13.73;12.25;;;19.00;99.90;;;;;;5090872;28;20449;-49
2022/08/29 06:54:33;;;;;;;14.75;13.15;;;19.20;99.90;;;;;;5090880;28;20471;-53
2022/08/29 06:56:58;;;;;;;23.35;12.93;;;19.20;99.90;;;;;;5089395;28;20043;-52
2022/08/29 06:59:25;;;;;;;20.23;13.38;;;19.10;99.90;;;;;;5079052;28;20428;-50
2022/08/29 07:01:53;;;;;;;18.92;13.23;;;19.10;99.90;;;;;;5072080;28;20120;-50
2022/08/29 07:04:19;;;;;;;15.82;13.13;;;19.20;99.90;;;;;;5070240;28;20078;-49
2022/08/29 07:06:45;;;;;;;20.13;14.38;;;19.30;99.90;;;;;;5071433;28;20527;-49
2022/08/29 07:09:11;;;;;;;16.02;12.80;;;19.30;99.90;;;;;;5070466;28;20068;-52
2022/08/29 07:11:39;;;;;;;19.38;14.05;;;19.50;99.90;;;;;;5070284;28;20368;-49
2022/08/29 07:14:05;;;;;;;26.52;13.90;;;19.80;99.90;;;;;;5070365;28;20016;-50
2022/08/29 07:16:32;;;;;;;16.30;12.07;;;19.80;99.90;;;;;;5073275;28;20032;-49
2022/08/29 07:19:00;;;;;;;18.63;14.77;;;19.90;99.90;;;;;;5069502;28;20031;-49
2022/08/29 07:21:26;;;;;;;20.55;16.10;;;20.00;99.90;;;;;;5073150;28;20024;-49
2022/08/29 07:23:53;;;;;;;23.13;16.92;;;20.10;99.90;;;;;;5070456;28;20099;-51
2022/08/29 07:26:27;;;;;;;26.60;18.65;;;20.20;99.90;;;;;;5067685;28;20069;-50
2022/08/29 07:28:55;;;;;;;25.83;17.95;;;20.20;99.90;;;;;;5071020;28;20025;-50
2022/08/29 07:31:21;;;;;;;31.05;19.13;;;20.30;99.90;;;;;;5070991;28;20020;-52
2022/08/29 07:33:47;;;;;;;23.27;18.83;;;20.30;99.90;;;;;;5072371;28;20486;-51
2022/08/29 07:36:13;;;;;;;23.58;19.00;;;20.40;99.90;;;;;;5074471;28;20099;-49
2022/08/29 07:38:38;;;;;;;27.40;20.77;;;20.40;99.90;;;;;;5070490;28;20404;-51
2022/08/29 07:41:10;;;;;;;24.33;20.33;;;20.40;99.90;;;;;;5071707;28;20066;-49
2022/08/29 07:43:36;;;;;;;23.55;18.60;;;20.40;99.90;;;;;;5070687;28;20012;-53
2022/08/29 07:46:15;;;;;;;26.73;20.77;;;20.40;99.90;;;;;;5069011;28;20025;-61
2022/08/29 07:48:42;;;;;;;28.75;21.02;;;20.50;99.90;;;;;;5070559;28;20032;-49
2022/08/29 07:51:16;;;;;;;33.03;22.75;;;20.50;99.90;;;;;;5102521;28;20052;-49
2022/08/29 07:53:42;;;;;;;36.78;25.10;;;20.70;99.90;;;;;;5071013;28;20040;-49
2022/08/29 07:56:21;;;;;;;23.65;17.73;;;20.80;99.90;;;;;;5070801;28;20096;-48
2022/08/29 07:58:47;;;;;;;20.55;18.00;;;20.90;99.90;;;;;;5071093;28;20071;-50
2022/08/29 08:01:13;;;;;;;30.58;18.80;;;21.10;99.90;;;;;;5070790;28;20028;-50
2022/08/29 08:03:41;;;;;;;21.17;17.10;;;21.00;99.90;;;;;;5071000;28;20016;-51
2022/08/29 08:06:08;;;;;;;22.60;18.05;;;20.90;99.90;;;;;;5072561;28;20078;-49
2022/08/29 08:08:34;;;;;;;25.15;20.33;;;20.90;99.90;;;;;;5074427;28;20072;-50
2022/08/29 08:11:02;;;;;;;30.75;20.23;;;20.70;99.90;;;;;;5074616;28;20056;-51
2022/08/29 08:13:28;;;;;;;22.35;17.05;;;20.80;99.90;;;;;;5076371;28;20211;-52
2022/08/29 08:15:54;;;;;;;23.15;15.57;;;20.70;99.90;;;;;;5074824;28;20029;-51
2022/08/29 08:18:21;;;;;;;21.77;17.38;;;20.90;99.90;;;;;;5074126;28;20129;-55
2022/08/29 08:20:49;;;;;;;20.75;16.85;;;20.80;99.90;;;;;;5077492;28;20103;-50
2022/08/29 08:23:16;;;;;;;20.75;16.27;;;20.90;99.90;;;;;;5079017;28;20071;-51
2022/08/29 08:25:43;;;;;;;21.40;15.10;;;21.20;99.90;;;;;;5074801;28;20020;-52
2022/08/29 08:28:11;;;;;;;14.77;13.18;;;21.50;99.90;;;;;;5074821;28;20033;-50
2022/08/29 08:30:36;;;;;;;19.65;15.05;;;21.50;99.90;;;;;;5075779;28;20024;-52
2022/08/29 08:33:02;;;;;;;15.40;13.35;;;21.60;99.90;;;;;;5094573;28;20084;-53
2022/08/29 08:35:28;;;;;;;17.30;13.10;;;21.70;99.90;;;;;;5093182;28;20409;-51
2022/08/29 08:37:55;;;;;;;21.40;14.70;;;21.60;99.90;;;;;;5094835;28;20016;-52
2022/08/29 08:40:25;;;;;;;14.88;13.02;;;21.70;99.90;;;;;;5094730;28;20150;-49
2022/08/29 08:42:57;;;;;;;13.95;12.38;;;21.70;99.90;;;;;;5076152;28;20121;-51
2022/08/29 08:45:26;;;;;;;14.40;11.82;;;21.80;99.90;;;;;;5074270;28;20021;-52
2022/08/29 08:48:17;;;;;;;15.60;10.73;;;21.90;99.90;;;;;;5074456;28;20100;-54
2022/08/29 08:51:01;;;;;;;11.48;8.43;;;22.20;99.90;;;;;;5054391;28;20017;-51
2022/08/29 08:53:27;;;;;;;10.43;7.63;;;22.60;99.90;;;;;;5054104;28;20029;-52
2022/08/29 08:55:55;;;;;;;9.77;8.27;;;22.70;99.90;;;;;;5054320;28;20384;-53
2022/08/29 08:58:33;;;;;;;16.75;9.40;;;23.00;99.90;;;;;;5057655;28;20025;-52
2022/08/29 09:01:13;;;;;;;11.43;9.77;;;23.30;99.90;;;;;;5093993;28;20035;-52
2022/08/29 09:04:03;;;;;;;15.00;8.30;;;23.00;99.90;;;;;;5092553;28;20028;-50
2022/08/29 09:06:57;;;;;;;9.05;7.95;;;23.20;99.90;;;;;;5093996;28;20024;-51
2022/08/29 09:09:29;;;;;;;11.63;8.10;;;23.30;99.90;;;;;;5030744;28;20045;-53
2022/08/29 09:11:58;;;;;;;12.18;8.57;;;23.50;99.90;;;;;;5054062;28;20591;-50
2022/08/29 09:14:33;;;;;;;11.90;9.55;;;23.80;99.90;;;;;;5053795;28;20029;-51
2022/08/29 09:17:00;;;;;;;12.50;9.30;;;23.50;99.90;;;;;;5052632;28;20033;-52
2022/08/29 09:19:26;;;;;;;14.15;10.60;;;23.50;99.90;;;;;;5053599;28;20083;-51
2022/08/29 09:21:58;;;;;;;11.88;10.60;;;23.60;99.90;;;;;;5092060;28;20028;-54
2022/08/29 09:24:43;;;;;;;15.13;10.75;;;23.60;99.90;;;;;;5093927;28;20016;-50
2022/08/29 09:27:19;;;;;;;10.65;9.45;;;23.40;99.90;;;;;;5093889;28;20024;-50
2022/08/29 09:29:48;;;;;;;12.88;9.60;;;23.30;99.90;;;;;;5078505;28;20033;-50
2022/08/29 09:32:15;;;;;;;11.85;8.52;;;23.60;99.90;;;;;;5072229;28;20024;-52
2022/08/29 09:34:46;;;;;;;14.27;8.45;;;23.60;99.90;;;;;;5072659;28;20021;-52
2022/08/29 09:37:33;;;;;;;9.43;8.00;;;23.40;99.90;;;;;;5072811;28;20459;-53
2022/08/29 09:40:11;;;;;;;12.30;8.68;;;23.10;99.90;;;;;;5068704;28;20086;-51
2022/08/29 09:42:41;;;;;;;9.88;8.05;;;23.20;99.90;;;;;;5074340;28;20816;-53
2022/08/29 09:45:19;;;;;;;10.30;7.50;;;23.10;99.90;;;;;;5082770;28;20395;-49
2022/08/29 09:47:45;;;;;;;12.38;7.65;;;23.10;99.90;;;;;;5084511;28;20077;-54
2022/08/29 09:50:17;;;;;;;10.93;7.05;;;23.00;99.90;;;;;;5092675;28;20028;-53
2022/08/29 09:52:59;;;;;;;9.02;6.95;;;23.60;99.90;;;;;;5092597;28;20372;-51
2022/08/29 09:55:33;;;;;;;10.27;7.18;;;23.80;99.90;;;;;;5088307;28;20032;-52
2022/08/29 09:58:27;;;;;;;7.38;6.65;;;23.90;99.90;;;;;;5080026;28;20016;-52
2022/08/29 10:01:01;;;;;;;7.05;6.10;;;24.20;99.90;;;;;;5074709;28;20569;-54
2022/08/29 10:03:32;;;;;;;8.00;6.22;;;24.70;99.90;;;;;;5092892;28;20360;-52
2022/08/29 10:06:31;;;;;;;7.00;5.78;;;24.90;99.90;;;;;;5093054;28;20020;-51
2022/08/29 10:09:05;;;;;;;8.68;7.15;;;25.40;99.90;;;;;;5080972;28;20104;-53
2022/08/29 10:11:52;;;;;;;9.98;6.40;;;25.20;99.90;;;;;;5092824;28;20107;-50
2022/08/29 10:14:39;;;;;;;9.88;6.20;;;25.00;99.90;;;;;;5078771;28;20024;-50
2022/08/29 10:20:12;;;;;;;5.95;5.07;;;25.40;99.90;;;;;;5072538;28;20110;-50
2022/08/29 10:22:55;;;;;;;8.30;5.93;;;25.50;99.70;;;;;;5072469;28;20060;-50
2022/08/29 10:25:40;;;;;;;7.82;5.30;;;25.50;99.90;;;;;;5052344;28;20025;-53
2022/08/29 10:28:31;;;;;;;8.15;6.03;;;25.80;99.60;;;;;;5051701;28;20048;-50
2022/08/29 10:31:16;;;;;;;9.10;6.60;;;25.80;99.20;;;;;;5052191;28;20033;-49
2022/08/29 10:34:10;;;;;;;6.90;5.47;;;25.70;99.40;;;;;;5051706;28;20025;-49
2022/08/29 10:36:39;;;;;;;11.27;6.40;;;26.10;99.40;;;;;;5051723;28;20404;-49
2022/08/29 10:39:58;;;;;;;11.00;5.82;;;25.90;98.10;;;;;;5051763;28;20064;-51
2022/08/29 10:42:25;;;;;;;6.20;5.00;;;26.00;98.40;;;;;;5062600;28;20032;-52
2022/08/29 10:44:56;;;;;;;8.18;6.10;;;26.30;97.70;;;;;;5080860;28;20069;-50
2022/08/29 10:47:33;;;;;;;5.90;5.28;;;26.30;98.30;;;;;;5071800;28;20456;-50
2022/08/29 10:50:18;;;;;;;6.60;5.43;;;26.00;96.50;;;;;;5051999;28;20033;-50
2022/08/29 10:53:20;;;;;;;7.10;5.40;;;26.60;97.50;;;;;;5052018;28;20063;-50
2022/08/29 10:55:56;;;;;;;8.90;5.85;;;26.70;96.70;;;;;;5071495;28;20028;-50
2022/08/29 10:58:50;;;;;;;7.72;5.20;;;27.20;96.50;;;;;;5074065;28;20021;-50
2022/08/29 11:01:21;;;;;;;6.90;5.40;;;27.10;96.80;;;;;;5050471;28;20052;-50
2022/08/29 11:04:07;;;;;;;9.25;6.55;;;27.30;96.00;;;;;;5059600;28;20322;-50
2022/08/29 11:06:50;;;;;;;6.68;5.97;;;27.10;95.40;;;;;;5070153;28;20030;-50
2022/08/29 11:09:39;;;;;;;9.63;5.55;;;26.80;95.90;;;;;;5069709;28;20024;-49
2022/08/29 11:12:24;;;;;;;9.23;6.60;;;26.90;96.50;;;;;;5070537;28;20040;-50
2022/08/29 11:15:00;;;;;;;7.03;6.32;;;27.40;96.70;;;;;;5070457;28;20050;-50
2022/08/29 11:17:37;;;;;;;10.82;6.10;;;27.80;97.90;;;;;;5068592;28;20086;-49
2022/08/29 11:20:27;;;;;;;9.15;6.35;;;27.60;94.60;;;;;;5070487;28;20420;-50
2022/08/29 11:23:14;;;;;;;6.13;5.53;;;27.70;94.60;;;;;;5070397;28;20059;-50
2022/08/29 11:25:42;;;;;;;11.52;6.95;;;27.20;94.40;;;;;;5070503;28;20048;-50
2022/08/29 11:28:44;;;;;;;10.90;7.20;;;27.30;95.10;;;;;;5070225;28;20027;-51
2022/08/29 11:31:44;;;;;;;7.68;6.97;;;28.60;94.50;;;;;;5070349;28;20066;-50
2022/08/29 11:34:43;;;;;;;12.35;5.40;;;29.80;92.10;;;;;;5070148;28;20028;-52
2022/08/29 11:37:36;;;;;;;8.88;4.90;;;30.80;89.10;;;;;;5070155;28;20029;-52
2022/08/29 11:40:13;;;;;;;6.68;4.65;;;32.20;82.50;;;;;;5069559;28;20016;-51
2022/08/29 11:42:41;;;;;;;8.65;4.78;;;32.90;80.80;;;;;;5070171;28;20021;-50
2022/08/29 11:45:12;;;;;;;7.28;5.65;;;32.80;75.40;;;;;;5070159;28;20078;-51
2022/08/29 11:47:46;;;;;;;7.90;5.10;;;32.80;78.00;;;;;;5068636;28;20054;-50
2022/08/29 11:50:15;;;;;;;7.28;5.35;;;32.80;75.00;;;;;;5069980;28;20035;-51
2022/08/29 11:53:02;;;;;;;8.95;5.03;;;33.30;75.30;;;;;;5069942;28;20024;-51
2022/08/29 11:55:36;;;;;;;5.90;5.28;;;33.30;71.40;;;;;;5069798;28;20103;-50
2022/08/29 11:58:12;;;;;;;9.40;5.35;;;32.40;73.70;;;;;;5069850;28;20021;-51
2022/08/29 12:00:40;;;;;;;6.78;4.40;;;32.50;70.30;;;;;;5070037;28;20465;-52
2022/08/29 12:03:32;;;;;;;13.57;4.72;;;32.60;69.80;;;;;;5069822;28;20021;-50
2022/08/29 12:06:24;;;;;;;6.50;4.53;;;32.80;69.00;;;;;;5069812;28;20028;-51
2022/08/29 12:09:09;;;;;;;;;;;32.20;68.20;;;;;;5070316;28;20021;-49
2022/08/29 12:11:59;;;;;;;7.53;4.72;;;32.80;72.70;;;;;;5069736;28;19909;-50
2022/08/29 12:14:37;;;;;;;7.63;4.30;;;32.90;69.80;;;;;;5069787;28;20075;-51
2022/08/29 12:17:10;;;;;;;7.25;4.57;;;33.30;69.80;;;;;;5069727;28;20075;-51
2022/08/29 12:19:46;;;;;;;;;;;33.70;69.50;;;;;;5070155;28;20017;-50
2022/08/29 12:22:50;;;;;;;7.72;4.03;;;33.80;66.20;;;;;;5069620;28;19904;-51
2022/08/29 12:25:43;;;;;;;11.63;4.13;;;34.40;66.10;;;;;;5069567;28;20473;-50
2022/08/29 12:28:29;;;;;;;7.70;4.30;;;33.00;64.80;;;;;;5069655;28;20039;-51
2022/08/29 12:30:58;;;;;;;8.88;4.13;;;32.60;68.30;;;;;;5069615;28;20383;-51
2022/08/29 12:33:48;;;;;;;6.60;4.75;;;33.10;67.30;;;;;;5069361;28;20028;-51
2022/08/29 12:36:17;;;;;;;7.63;4.40;;;33.70;68.30;;;;;;5069214;28;20502;-50
2022/08/29 12:38:49;;;;;;;6.35;4.30;;;33.90;66.60;;;;;;5069559;28;20020;-50
2022/08/29 12:41:32;;;;;;;6.50;3.85;;;34.30;64.40;;;;;;5069878;28;20598;-50
2022/08/29 12:44:02;;;;;;;7.78;3.97;;;35.00;62.70;;;;;;5069608;28;20032;-52
2022/08/29 12:46:33;;;;;;;10.27;5.13;;;35.00;63.50;;;;;;5069390;28;20079;-52
2022/08/29 12:49:28;;;;;;;6.97;3.85;;;34.60;62.70;;;;;;5069552;28;20357;-50
2022/08/29 12:52:04;;;;;;;7.97;4.22;;;33.80;63.10;;;;;;5072240;28;20032;-50
2022/08/29 12:54:31;;;;;;;7.03;3.72;;;33.20;62.90;;;;;;5073410;28;20579;-50
2022/08/29 12:56:57;;;;;;;8.23;3.97;;;33.60;63.00;;;;;;5060556;28;20063;-51